Time;durP1;ratioP1;P1;durP2;ratioP2;P2;SDS_P1;SDS_P2;PMS_P1;PMS_P2;Temp;Humidity;BMP_temperature;BMP_pressure;BME280_temperature;BME280_humidity;BME280_pressure;Samples;Min_cycle;Max_cycle;Signal;HPM_P1;HPM_P2
2021/06/24 00:03:29;;;;;;;28.25;8.52;;;;;;;21.93;100.00;95013.50;10493200;28;20032;-73
2021/06/24 00:08:29;;;;;;;30.08;8.65;;;;;;;22.02;100.00;95010.69;10492396;28;20178;-73
2021/06/24 00:13:30;;;;;;;35.72;9.40;;;;;;;22.04;100.00;95011.13;10490671;28;20017;-73
2021/06/24 00:18:30;;;;;;;35.38;7.82;;;;;;;22.02;100.00;95027.09;10492344;28;20111;-73
2021/06/24 00:23:31;;;;;;;26.05;9.35;;;;;;;22.05;100.00;95031.06;10491669;28;20029;-73
2021/06/24 00:28:31;;;;;;;29.88;7.70;;;;;;;21.94;100.00;95023.31;10491869;28;20476;-73
2021/06/24 00:33:32;;;;;;;31.00;9.77;;;;;;;21.88;100.00;95021.94;10490514;28;20048;-73
2021/06/24 00:38:32;;;;;;;31.48;8.45;;;;;;;21.80;100.00;95022.84;10490994;28;20036;-73
2021/06/24 00:43:33;;;;;;;29.88;7.32;;;;;;;21.78;100.00;95019.63;10490181;28;20052;-73
2021/06/24 00:48:33;;;;;;;26.83;7.57;;;;;;;21.79;100.00;95021.22;10491077;28;20020;-73
2021/06/24 00:53:34;;;;;;;28.47;9.30;;;;;;;21.79;100.00;95018.50;10489279;28;20042;-73
2021/06/24 00:58:34;;;;;;;21.85;6.82;;;;;;;21.65;100.00;95033.25;10490852;28;20032;-73
2021/06/24 01:03:34;;;;;;;28.77;8.13;;;;;;;21.68;100.00;95040.81;10489710;28;20028;-73
2021/06/24 01:08:35;;;;;;;20.60;7.67;;;;;;;21.66;100.00;95031.34;10490543;28;20024;-73
2021/06/24 01:13:35;;;;;;;42.37;9.13;;;;;;;21.51;100.00;95047.19;10490101;28;20103;-73
2021/06/24 01:18:36;;;;;;;34.42;7.95;;;;;;;21.47;100.00;95031.78;10489626;28;20353;-73
2021/06/24 01:23:39;;;;;;;28.15;7.97;;;;;;;21.41;100.00;95039.41;10490056;28;20017;-73
2021/06/24 01:28:39;;;;;;;29.13;8.75;;;;;;;21.35;100.00;95032.56;10489395;28;20035;-73
2021/06/24 01:33:40;;;;;;;29.07;7.83;;;;;;;21.35;100.00;95038.03;10489273;28;20052;-73
2021/06/24 01:38:44;;;;;;;28.00;8.35;;;;;;;20.98;100.00;95035.09;10489404;28;20329;-73
2021/06/24 01:43:46;;;;;;;32.53;7.93;;;;;;;20.79;100.00;95038.25;10488613;28;20051;-73
2021/06/24 01:48:46;;;;;;;27.60;9.13;;;;;;;20.65;100.00;95043.91;10488882;28;20020;-72
2021/06/24 01:53:47;;;;;;;38.17;9.18;;;;;;;20.53;100.00;95044.63;10488099;28;20035;-73
2021/06/24 01:58:47;;;;;;;35.17;11.17;;;;;;;20.46;100.00;95038.91;10486868;28;20021;-73
2021/06/24 02:03:48;;;;;;;35.97;7.80;;;;;;;20.51;100.00;95037.91;10487648;28;20028;-73
2021/06/24 02:08:48;;;;;;;25.27;8.68;;;;;;;20.44;100.00;95030.22;10488129;28;20020;-73
2021/06/24 02:13:48;;;;;;;31.23;8.00;;;;;;;20.38;100.00;95023.34;10487594;28;20031;-73
2021/06/24 02:18:49;;;;;;;34.97;10.13;;;;;;;20.27;100.00;95017.47;10487559;28;20029;-73
2021/06/24 02:23:49;;;;;;;28.10;9.13;;;;;;;20.17;100.00;95010.44;10487554;28;20162;-73
2021/06/24 02:28:50;;;;;;;26.40;9.73;;;;;;;20.19;100.00;95013.66;10487371;28;20024;-73
2021/06/24 02:33:51;;;;;;;38.93;10.40;;;;;;;20.15;100.00;95015.44;10486710;28;20100;-73
2021/06/24 02:38:51;;;;;;;41.17;10.02;;;;;;;20.11;100.00;95019.94;10487303;28;20033;-73
2021/06/24 02:43:51;;;;;;;28.43;11.07;;;;;;;20.32;100.00;95015.34;10486659;28;20032;-73
2021/06/24 02:48:53;;;;;;;35.07;9.70;;;;;;;20.39;100.00;94997.66;10486555;28;20262;-73
2021/06/24 02:53:53;;;;;;;25.90;9.20;;;;;;;20.38;100.00;94996.06;10486916;28;20282;-73
2021/06/24 02:58:54;;;;;;;26.63;10.00;;;;;;;20.33;100.00;95013.41;10486531;28;20036;-73
2021/06/24 03:03:54;;;;;;;30.57;11.27;;;;;;;20.44;100.00;95005.66;10484660;28;20491;-73
2021/06/24 03:08:54;;;;;;;45.27;14.40;;;;;;;20.48;100.00;95006.59;10485320;28;20571;-73
2021/06/24 03:13:55;;;;;;;37.17;10.98;;;;;;;20.42;100.00;95016.91;10487588;28;20109;-73
2021/06/24 03:18:55;;;;;;;30.30;11.75;;;;;;;20.43;100.00;95020.44;10493640;28;20869;-73
2021/06/24 03:23:56;;;;;;;25.93;11.17;;;;;;;20.49;100.00;95025.38;10493945;28;20021;-73
2021/06/24 03:28:56;;;;;;;25.70;10.23;;;;;;;20.59;100.00;95039.78;10492975;28;20273;-73
2021/06/24 03:33:57;;;;;;;51.47;11.20;;;;;;;20.62;100.00;95056.31;10492551;28;20427;-73
2021/06/24 03:38:57;;;;;;;37.28;12.63;;;;;;;20.68;100.00;95045.22;10493444;28;20366;-73
2021/06/24 03:43:58;;;;;;;22.98;9.75;;;;;;;20.64;100.00;95032.22;10492625;28;20074;-73
2021/06/24 03:48:58;;;;;;;22.15;9.23;;;;;;;20.53;100.00;95035.66;10493455;28;20025;-73
2021/06/24 03:53:59;;;;;;;26.88;8.88;;;;;;;20.35;100.00;95049.38;10492804;28;20016;-73
2021/06/24 03:58:59;;;;;;;35.08;10.43;;;;;;;20.30;100.00;95044.09;10492940;28;20667;-73
2021/06/24 04:04:00;;;;;;;30.20;10.03;;;;;;;20.28;100.00;95047.16;10491343;28;20024;-73
2021/06/24 04:09:00;;;;;;;32.70;9.98;;;;;;;20.16;100.00;95036.13;10492351;28;20273;-73
2021/06/24 04:14:01;;;;;;;22.88;9.23;;;;;;;20.31;100.00;95032.84;10492095;28;20411;-73
2021/06/24 04:19:02;;;;;;;27.60;9.27;;;;;;;20.54;100.00;95039.97;10491932;28;20033;-73
2021/06/24 04:24:02;;;;;;;31.08;9.75;;;;;;;20.72;100.00;95043.44;10489667;28;20273;-73
2021/06/24 04:29:03;;;;;;;27.30;9.00;;;;;;;21.07;100.00;95041.28;10491455;28;20020;-73
2021/06/24 04:34:05;;;;;;;32.30;8.30;;;;;;;21.42;100.00;95048.41;10491326;28;20110;-73
2021/06/24 04:39:06;;;;;;;38.25;9.57;;;;;;;22.12;100.00;95055.97;10491331;28;20411;-73
2021/06/24 04:44:06;;;;;;;37.23;9.27;;;;;;;22.61;100.00;95042.34;10491244;28;20020;-73
2021/06/24 04:49:07;;;;;;;28.58;7.38;;;;;;;22.57;100.00;95038.69;10490696;28;20083;-73
2021/06/24 04:54:07;;;;;;;24.65;7.72;;;;;;;22.89;100.00;95041.63;10490478;28;20943;-73
2021/06/24 04:59:08;;;;;;;29.25;11.40;;;;;;;23.26;100.00;95027.91;10490250;28;20715;-73
2021/06/24 05:04:08;;;;;;;34.07;8.73;;;;;;;23.76;100.00;95025.72;10490439;28;20507;-73
2021/06/24 05:09:08;;;;;;;33.92;9.50;;;;;;;24.66;100.00;95024.53;10488804;28;20281;-73
2021/06/24 05:14:09;;;;;;;30.37;9.13;;;;;;;25.36;100.00;95036.72;10487978;28;20396;-73
2021/06/24 05:19:10;;;;;;;27.60;7.85;;;;;;;26.06;100.00;95032.97;10489106;28;20336;-73
2021/06/24 05:24:10;;;;;;;22.02;7.68;;;;;;;26.64;100.00;95036.72;10488211;28;20040;-74
2021/06/24 05:29:11;;;;;;;20.35;6.60;;;;;;;27.26;100.00;95044.75;10488646;28;20024;-73
2021/06/24 05:34:12;;;;;;;27.38;7.90;;;;;;;27.92;99.67;95041.66;10486717;28;20132;-73
2021/06/24 05:39:12;;;;;;;23.30;8.00;;;;;;;28.24;100.00;95029.34;10487373;28;20040;-74
2021/06/24 05:44:13;;;;;;;26.87;6.57;;;;;;;28.06;96.89;95030.00;10488071;28;20056;-74
2021/06/24 05:49:13;;;;;;;26.57;7.60;;;;;;;28.68;99.81;95030.56;10487382;28;20290;-74
2021/06/24 05:54:13;;;;;;;37.13;9.23;;;;;;;29.57;90.98;95021.22;10487076;28;20039;-74
2021/06/24 05:59:14;;;;;;;32.00;7.97;;;;;;;30.65;81.72;95024.28;10487374;28;20032;-74
2021/06/24 06:04:15;;;;;;;30.92;7.50;;;;;;;30.94;81.86;95041.69;10487327;28;20630;-74
2021/06/24 06:09:16;;;;;;;36.35;7.03;;;;;;;31.24;73.03;95039.69;10487307;28;20905;-74
2021/06/24 06:14:16;;;;;;;26.35;6.78;;;;;;;32.17;68.97;95031.03;10486434;28;20082;-74
2021/06/24 06:19:17;;;;;;;30.57;6.90;;;;;;;32.19;64.97;95025.88;10486686;28;20456;-74
2021/06/24 06:24:17;;;;;;;20.77;6.07;;;;;;;32.72;62.35;95025.91;10485833;28;20855;-74
2021/06/24 06:29:18;;;;;;;21.90;6.47;;;;;;;33.42;62.87;95027.63;10485145;28;20267;-74
2021/06/24 06:34:18;;;;;;;37.58;7.22;;;;;;;34.12;55.08;95017.25;10486451;28;20052;-74
2021/06/24 06:39:18;;;;;;;23.48;5.60;;;;;;;34.10;55.57;95012.09;10485460;28;20029;-74
2021/06/24 06:44:19;;;;;;;36.90;7.73;;;;;;;34.26;54.43;95013.47;10502197;28;20093;-74
2021/06/24 06:49:19;;;;;;;30.13;8.17;;;;;;;34.79;52.30;95019.44;10486130;28;20024;-74
2021/06/24 06:54:20;;;;;;;25.98;6.40;;;;;;;35.64;49.99;95013.56;10486578;28;20032;-74
2021/06/24 06:59:20;;;;;;;30.13;6.37;;;;;;;36.11;49.42;95018.19;10486773;28;20036;-74
2021/06/24 07:04:21;;;;;;;30.90;7.10;;;;;;;36.22;46.27;95018.72;10485650;28;20466;-74
2021/06/24 07:09:21;;;;;;;26.10;7.25;;;;;;;36.59;45.62;95019.50;10484751;28;20478;-74
2021/06/24 07:14:22;;;;;;;25.13;6.70;;;;;;;37.55;43.24;95006.28;10485429;28;20762;-74
2021/06/24 07:19:22;;;;;;;23.47;6.83;;;;;;;38.21;41.07;95011.59;10487275;28;20873;-74
2021/06/24 07:24:22;;;;;;;31.07;5.53;;;;;;;38.65;40.85;95013.84;10487132;28;20024;-74
2021/06/24 07:29:23;;;;;;;30.37;7.17;;;;;;;38.27;39.85;95007.00;10487279;28;20029;-74
2021/06/24 07:34:23;;;;;;;28.60;5.90;;;;;;;39.03;39.06;95012.25;10486974;28;20131;-74
2021/06/24 07:39:24;;;;;;;23.77;6.07;;;;;;;39.16;37.48;95007.41;10486838;28;20294;-74
2021/06/24 07:44:25;;;;;;;31.42;6.25;;;;;;;39.60;38.82;95006.69;10487512;28;20135;-74
2021/06/24 07:49:26;;;;;;;22.65;5.85;;;;;;;39.99;35.84;95010.88;10486676;28;20403;-74
2021/06/24 07:54:26;;;;;;;39.07;6.97;;;;;;;40.51;37.18;95010.50;10485273;28;20028;-72
2021/06/24 07:59:26;;;;;;;20.63;5.60;;;;;;;39.94;36.72;95010.66;10487866;28;20033;-72
2021/06/24 08:04:27;;;;;;;32.83;6.97;;;;;;;40.01;35.49;95012.41;10493904;28;20282;-72
2021/06/24 08:09:27;;;;;;;27.30;6.93;;;;;;;38.90;36.28;95001.03;10494211;28;20162;-72
2021/06/24 08:14:28;;;;;;;22.97;5.93;;;;;;;39.36;35.92;95001.47;10493552;28;20044;-72
2021/06/24 08:19:28;;;;;;;30.20;6.47;;;;;;;38.92;38.04;95001.34;10493308;28;20640;-72
2021/06/24 08:24:28;;;;;;;28.67;6.40;;;;;;;40.62;35.15;95001.63;10493211;28;20743;-72
2021/06/24 08:29:29;;;;;;;30.45;6.00;;;;;;;41.27;34.36;95016.66;10493123;28;20029;-72
2021/06/24 08:34:29;;;;;;;25.93;5.43;;;;;;;41.91;31.54;95006.66;10493120;28;20181;-72
2021/06/24 08:39:30;;;;;;;38.20;6.57;;;;;;;42.85;30.38;95016.38;10490702;28;20037;-72
2021/06/24 08:44:31;;;;;;;22.80;4.67;;;;;;;42.93;30.43;95008.34;10491636;28;20409;-73
2021/06/24 08:49:32;;;;;;;28.58;5.50;;;;;;;43.57;29.59;94995.81;10491727;28;20107;-73
2021/06/24 08:54:33;;;;;;;22.98;4.38;;;;;;;43.06;27.87;95000.41;10491296;28;20032;-73
2021/06/24 08:59:33;;;;;;;16.80;3.40;;;;;;;42.75;28.48;94997.91;10490872;28;20052;-73
2021/06/24 09:04:34;;;;;;;19.67;3.97;;;;;;;43.56;28.57;94990.63;10491627;28;20032;-73
2021/06/24 09:09:36;;;;;;;18.65;3.40;;;;;;;43.80;25.52;94990.56;10491764;28;20074;-73
2021/06/24 09:14:37;;;;;;;16.88;3.05;;;;;;;45.01;24.46;94990.69;10490364;28;20028;-73
2021/06/24 09:19:40;;;;;;;10.80;3.05;;;;;;;46.01;23.90;94991.63;10489732;28;20480;-73
2021/06/24 09:24:40;;;;;;;31.48;4.05;;;;;;;45.38;25.48;94987.31;10490635;28;20502;-73
2021/06/24 09:29:40;;;;;;;25.90;3.70;;;;;;;45.34;24.41;94983.94;10490310;28;20077;-73
2021/06/24 09:34:51;;;;;;;17.40;3.60;;;;;;;44.15;25.74;94982.16;10490484;28;20514;-73
2021/06/24 09:39:54;;;;;;;21.73;5.03;;;;;;;42.84;24.53;94975.22;10490292;28;20028;-73
2021/06/24 09:44:55;;;;;;;13.70;3.03;;;;;;;43.52;25.51;94968.94;10490152;28;20039;-73
2021/06/24 09:50:01;;;;;;;15.77;3.10;;;;;;;44.58;24.58;94972.56;10489786;28;20028;-73
2021/06/24 09:55:05;;;;;;;12.73;2.67;;;;;;;44.82;22.50;94970.34;10489711;28;20295;-73
2021/06/24 10:00:47;;;;;;;12.73;2.85;;;;;;;46.03;24.39;94963.50;10489281;28;20542;-73
2021/06/24 10:05:48;;;;;;;21.92;2.97;;;;;;;44.85;24.51;94958.03;10469382;28;20048;-73
2021/06/24 10:10:49;;;;;;;19.42;3.08;;;;;;;45.12;23.24;94955.25;10488771;28;20039;-73
2021/06/24 10:15:51;;;;;;;26.50;3.47;;;;;;;45.95;24.43;94950.25;10488977;28;20041;-74
2021/06/24 10:20:51;;;;;;;13.40;3.10;;;;;;;46.39;22.37;94937.72;10489189;28;20111;-74
2021/06/24 10:25:52;;;;;;;16.17;3.13;;;;;;;46.49;22.73;94929.75;10487153;28;20039;-74
2021/06/24 10:30:53;;;;;;;19.63;3.33;;;;;;;46.61;23.29;94928.53;10487093;28;20039;-74
2021/06/24 10:35:53;;;;;;;10.87;2.57;;;;;;;47.27;20.17;94925.78;10486443;28;20078;-74
2021/06/24 10:40:57;;;;;;;21.55;3.78;;;;;;;46.33;22.51;94925.50;10486967;28;20028;-74
2021/06/24 10:46:12;;;;;;;27.23;4.07;;;;;;;47.43;22.76;94923.50;10486848;28;20031;-74
2021/06/24 10:51:15;;;;;;;17.58;2.90;;;;;;;47.66;21.58;94910.06;10486829;28;20032;-74
2021/06/24 10:56:27;;;;;;;16.63;3.10;;;;;;;46.64;22.31;94915.38;10486599;28;20043;-74
2021/06/24 11:01:47;;;;;;;19.23;3.17;;;;;;;45.90;23.01;94917.69;10485169;28;20032;-74
2021/06/24 11:06:51;;;;;;;19.08;4.50;;;;;;;43.40;24.43;94907.75;10485129;28;20497;-74
2021/06/24 11:11:52;;;;;;;18.07;3.77;;;;;;;41.32;25.83;94917.34;10484991;28;20024;-74
2021/06/24 11:16:52;;;;;;;24.55;4.30;;;;;;;39.75;29.46;94911.28;10485294;28;20503;-73
2021/06/24 11:21:54;;;;;;;19.77;3.73;;;;;;;38.20;30.20;94913.81;10484640;28;20089;-74
2021/06/24 11:26:56;;;;;;;23.55;3.80;;;;;;;37.75;30.23;94910.00;10484691;28;20029;-74
2021/06/24 11:32:12;;;;;;;32.97;4.28;;;;;;;37.40;30.07;94906.97;10485021;28;20123;-73
2021/06/24 11:37:18;;;;;;;22.92;4.00;;;;;;;37.20;32.47;94909.91;10490762;28;20048;-74
2021/06/24 11:42:28;;;;;;;16.20;4.20;;;;;;;37.13;30.94;94905.28;10493734;28;20024;-73
2021/06/24 11:47:32;;;;;;;24.88;4.53;;;;;;;37.10;33.57;94906.97;10493556;28;20423;-73
2021/06/24 12:03:25;;;;;;;20.50;3.47;;;;;;;36.29;33.10;94891.06;10492717;28;20107;-74
2021/06/24 12:08:27;;;;;;;16.27;4.00;;;;;;;36.30;33.48;94885.03;10492579;28;20020;-73
2021/06/24 12:13:32;;;;;;;23.55;4.57;;;;;;;36.31;35.34;94885.84;10492242;28;20270;-73
2021/06/24 12:18:41;;;;;;;18.30;3.47;;;;;;;35.40;33.88;94885.06;10491775;28;20029;-73
2021/06/24 12:23:44;;;;;;;13.90;3.30;;;;;;;34.85;32.23;94883.75;10493200;28;20522;-74
2021/06/24 12:28:44;;;;;;;14.15;3.22;;;;;;;34.95;32.16;94876.38;10493418;28;20027;-73
2021/06/24 12:33:47;;;;;;;22.75;5.63;;;;;;;34.92;33.87;94867.63;10492667;28;20051;-73
2021/06/24 12:38:47;;;;;;;28.75;5.35;;;;;;;34.66;38.82;94871.31;10502482;28;20056;-73
2021/06/24 12:43:48;;;;;;;21.83;4.13;;;;;;;34.90;35.71;94875.66;10492298;28;20111;-74
2021/06/24 12:48:49;;;;;;;20.58;4.57;;;;;;;34.53;37.09;94868.34;10491111;28;20028;-73
2021/06/24 12:53:53;;;;;;;21.60;5.03;;;;;;;34.54;40.99;94858.78;10492518;28;20024;-73
2021/06/24 12:59:06;;;;;;;22.25;5.40;;;;;;;34.77;36.72;94857.94;10491772;28;20768;-74
2021/06/24 13:04:19;;;;;;;22.70;3.90;;;;;;;35.02;35.02;94856.69;10491969;28;20016;-73
2021/06/24 13:09:43;;;;;;;30.17;5.68;;;;;;;35.08;34.88;94829.81;10491385;28;20024;-74
2021/06/24 13:14:46;;;;;;;27.63;4.30;;;;;;;35.04;35.05;94831.88;10493573;28;20047;-74
2021/06/24 13:19:52;;;;;;;20.13;4.70;;;;;;;34.98;37.08;94839.22;10491799;28;20028;-73
2021/06/24 13:24:57;;;;;;;19.13;4.72;;;;;;;34.95;36.55;94832.47;10489567;28;20373;-74
2021/06/24 13:30:07;;;;;;;21.08;3.95;;;;;;;34.67;40.12;94826.22;10490412;28;20024;-74
2021/06/24 13:35:14;;;;;;;28.58;4.60;;;;;;;34.65;40.27;94811.91;10490135;28;20049;-73
2021/06/24 13:40:21;;;;;;;32.08;7.05;;;;;;;34.63;38.54;94817.13;10489134;28;20600;-73
2021/06/24 13:45:21;;;;;;;21.02;6.80;;;;;;;34.43;39.79;94813.50;10489594;28;20055;-73
2021/06/24 13:50:21;;;;;;;22.93;4.13;;;;;;;34.37;37.87;94813.22;10489755;28;20115;-74
2021/06/24 13:55:22;;;;;;;37.73;4.70;;;;;;;34.38;38.63;94814.78;10489350;28;20535;-74
2021/06/24 14:00:22;;;;;;;19.80;4.38;;;;;;;34.40;42.52;94806.81;10488979;28;20047;-74
2021/06/24 14:05:23;;;;;;;19.47;4.93;;;;;;;34.16;40.85;94798.44;10489575;28;20036;-74
2021/06/24 14:10:23;;;;;;;22.97;5.03;;;;;;;33.93;40.42;94793.63;10487834;28;20278;-74
2021/06/24 14:15:24;;;;;;;22.77;4.27;;;;;;;33.96;39.63;94808.72;10489056;28;20060;-74
2021/06/24 14:20:24;;;;;;;19.65;4.22;;;;;;;33.96;37.55;94797.59;10488464;28;20039;-73
2021/06/24 14:25:25;;;;;;;25.63;4.20;;;;;;;33.87;35.51;94798.91;10488096;28;20028;-74
2021/06/24 14:30:25;;;;;;;21.40;4.40;;;;;;;33.80;36.48;94798.22;10488379;28;20040;-74
2021/06/24 14:35:25;;;;;;;26.00;4.33;;;;;;;33.78;36.28;94787.50;10487898;28;20051;-74
2021/06/24 14:40:26;;;;;;;20.53;4.50;;;;;;;33.77;36.66;94785.13;10487820;28;20028;-74
2021/06/24 14:45:27;;;;;;;20.30;4.07;;;;;;;33.65;36.48;94769.78;10488196;28;20028;-73
2021/06/24 14:50:27;;;;;;;19.33;3.90;;;;;;;33.65;36.00;94786.50;10487404;28;20476;-73
2021/06/24 14:55:34;;;;;;;22.47;3.63;;;;;;;33.66;38.55;94788.06;10485963;28;20294;-73
2021/06/24 15:00:35;;;;;;;;;;;;;;;33.60;39.04;94781.41;10489723;28;20032;-73
2021/06/24 15:05:36;;;;;;;27.13;4.30;;;;;;;33.46;37.20;94780.41;10484936;28;19916;-73
2021/06/24 15:10:37;;;;;;;18.05;3.75;;;;;;;33.45;38.61;94781.63;10488270;28;20108;-73
2021/06/24 15:15:38;;;;;;;25.55;3.83;;;;;;;33.41;37.30;94782.88;10493299;28;20675;-73
2021/06/24 15:20:39;;;;;;;22.88;4.35;;;;;;;33.42;38.07;94773.31;10493706;28;20025;-73
2021/06/24 15:25:40;;;;;;;26.58;4.60;;;;;;;33.34;37.13;94765.06;10493720;28;20024;-73
2021/06/24 15:30:40;;;;;;;26.50;5.45;;;;;;;33.22;37.95;94763.59;10493931;28;20024;-73
2021/06/24 15:35:40;;;;;;;20.33;3.50;;;;;;;33.14;37.56;94764.13;10493744;28;20049;-73
2021/06/24 15:40:41;;;;;;;24.02;3.85;;;;;;;32.94;38.07;94767.59;10493508;28;20425;-73
2021/06/24 15:45:41;;;;;;;21.90;6.53;;;;;;;32.87;37.74;94768.47;10493532;28;20104;-73
2021/06/24 15:50:42;;;;;;;23.17;5.40;;;;;;;32.81;39.30;94769.38;10492109;28;20051;-73
2021/06/24 15:55:47;;;;;;;22.77;6.13;;;;;;;32.75;39.51;94777.34;10493065;28;20292;-73
2021/06/24 16:00:47;;;;;;;28.30;5.57;;;;;;;32.67;40.13;94787.00;10492825;28;20415;-73
2021/06/24 16:05:48;;;;;;;21.17;3.83;;;;;;;32.54;40.06;94786.72;10491222;28;20020;-73
2021/06/24 16:10:48;;;;;;;20.00;5.90;;;;;;;32.39;40.67;94780.56;10492280;28;20542;-73
2021/06/24 16:15:49;;;;;;;28.83;7.20;;;;;;;32.18;41.06;94784.34;10492299;28;20892;-73
2021/06/24 16:20:49;;;;;;;17.70;3.30;;;;;;;32.13;38.54;94784.75;10491423;28;20028;-73
2021/06/24 16:25:50;;;;;;;31.75;4.63;;;;;;;32.12;39.23;94789.50;10491851;28;20031;-73
2021/06/24 16:30:51;;;;;;;17.90;3.75;;;;;;;32.19;39.84;94797.03;10491679;28;20025;-73
2021/06/24 16:35:51;;;;;;;17.95;5.28;;;;;;;32.22;40.18;94801.75;10491271;28;20182;-73
2021/06/24 16:40:52;;;;;;;17.75;3.55;;;;;;;32.35;38.18;94796.50;10491454;28;20021;-73
2021/06/24 16:45:53;;;;;;;24.92;5.03;;;;;;;32.24;41.93;94799.38;10491570;28;20024;-73
2021/06/24 16:50:57;;;;;;;20.42;4.35;;;;;;;32.00;45.21;94806.72;10491133;28;20471;-73
2021/06/24 16:55:57;;;;;;;27.38;4.55;;;;;;;31.79;48.97;94810.47;10490544;28;20039;-73
2021/06/24 17:00:58;;;;;;;26.87;4.70;;;;;;;31.51;51.10;94817.81;10490966;28;20127;-73
2021/06/24 17:06:03;;;;;;;27.73;5.43;;;;;;;31.39;52.45;94821.06;10489104;28;20089;-73
2021/06/24 17:11:03;;;;;;;26.35;5.30;;;;;;;31.17;55.58;94835.84;10488957;28;20074;-73
2021/06/24 17:16:04;;;;;;;19.95;5.35;;;;;;;30.93;57.55;94839.50;10489138;28;20123;-73
2021/06/24 17:21:05;;;;;;;23.42;5.00;;;;;;;30.83;57.78;94850.22;10487528;28;20032;-73
2021/06/24 17:26:05;;;;;;;23.33;4.40;;;;;;;30.68;62.11;94848.69;10489132;28;20024;-73
2021/06/24 17:31:06;;;;;;;26.85;6.47;;;;;;;30.53;57.62;94847.16;10489019;28;20025;-73
2021/06/24 17:36:07;;;;;;;27.42;5.15;;;;;;;30.40;53.75;94849.53;10488793;28;20810;-73
2021/06/24 17:41:07;;;;;;;21.60;4.40;;;;;;;30.38;55.98;94849.94;10487762;28;20025;-73
2021/06/24 17:46:08;;;;;;;26.97;4.90;;;;;;;30.24;60.41;94853.53;10489142;28;20032;-73
2021/06/24 17:51:08;;;;;;;30.63;5.78;;;;;;;30.11;65.09;94855.88;10488590;28;20282;-73
2021/06/24 17:56:09;;;;;;;25.80;5.27;;;;;;;29.87;66.51;94851.16;10488135;28;20028;-73
2021/06/24 18:01:09;;;;;;;22.40;4.50;;;;;;;29.65;60.03;94846.38;10488356;28;21125;-73
2021/06/24 18:06:10;;;;;;;25.23;5.13;;;;;;;29.58;58.73;94835.25;10487859;28;20020;-73
2021/06/24 18:11:11;;;;;;;29.80;5.95;;;;;;;29.54;66.23;94847.53;10487983;28;20029;-73
2021/06/24 18:16:11;;;;;;;38.88;5.78;;;;;;;29.32;68.42;94861.34;10488089;28;20098;-73
2021/06/24 18:21:12;;;;;;;19.48;5.57;;;;;;;29.11;65.23;94864.81;10486271;28;20399;-73
2021/06/24 18:26:15;;;;;;;17.70;5.07;;;;;;;28.90;61.05;94865.50;10487315;28;20031;-73
2021/06/24 18:31:17;;;;;;;26.52;5.30;;;;;;;28.83;63.76;94869.06;10487139;28;20290;-73
2021/06/24 18:36:18;;;;;;;22.65;5.90;;;;;;;28.81;71.01;94869.41;10487245;28;20056;-73
2021/06/24 18:41:19;;;;;;;26.17;6.05;;;;;;;28.65;69.39;94866.19;10486852;28;20057;-73
2021/06/24 18:46:19;;;;;;;33.25;5.75;;;;;;;28.44;69.67;94872.38;10486599;28;20024;-73
2021/06/24 18:51:19;;;;;;;36.43;7.33;;;;;;;28.41;73.52;94865.63;10486124;28;20033;-73
2021/06/24 18:56:20;;;;;;;33.67;6.83;;;;;;;28.33;77.05;94877.81;10486050;28;20032;-73
2021/06/24 19:01:20;;;;;;;34.40;7.28;;;;;;;28.25;77.34;94890.00;10484842;28;20070;-73
2021/06/24 19:06:21;;;;;;;32.03;6.20;;;;;;;28.14;76.16;94884.38;10484793;28;20111;-73
2021/06/24 19:11:21;;;;;;;46.00;7.93;;;;;;;27.99;78.30;94889.00;10483772;28;20024;-73
2021/06/24 19:16:22;;;;;;;34.03;7.05;;;;;;;28.01;75.31;94880.34;10485112;28;20106;-73
2021/06/24 19:21:22;;;;;;;23.97;7.00;;;;;;;27.99;81.10;94886.22;10485997;28;20039;-73
2021/06/24 19:26:23;;;;;;;29.75;8.90;;;;;;;27.96;83.67;94886.97;10486261;28;20182;-73
2021/06/24 19:31:24;;;;;;;34.70;7.93;;;;;;;27.94;84.75;94887.34;10485423;28;20500;-73
2021/06/24 19:36:25;;;;;;;29.95;5.75;;;;;;;27.94;81.18;94881.06;10485785;28;20090;-73
2021/06/24 19:41:25;;;;;;;25.85;6.97;;;;;;;27.94;76.95;94892.88;10485723;28;20870;-73
2021/06/24 19:46:26;;;;;;;30.38;7.22;;;;;;;27.98;73.45;94895.69;10485204;28;20031;-73
2021/06/24 19:51:27;;;;;;;36.92;7.30;;;;;;;28.00;74.45;94895.31;10485399;28;20040;-73
2021/06/24 19:56:27;;;;;;;28.63;5.85;;;;;;;27.93;79.73;94896.81;10486567;28;20131;-73
2021/06/24 20:01:29;;;;;;;34.00;7.68;;;;;;;27.95;83.54;94888.94;10491414;28;20037;-73
2021/06/24 20:06:29;;;;;;;35.70;6.80;;;;;;;27.91;82.92;94881.81;10489445;28;20487;-73
2021/06/24 20:11:30;;;;;;;27.35;7.10;;;;;;;27.89;84.26;94882.16;10491442;28;20039;-73
2021/06/24 20:16:31;;;;;;;27.98;6.50;;;;;;;27.76;87.73;94878.13;10491794;28;20028;-73
2021/06/24 20:21:32;;;;;;;25.15;6.85;;;;;;;27.70;88.22;94874.94;10495315;28;20098;-73
2021/06/24 20:26:32;;;;;;;33.53;7.85;;;;;;;27.62;91.25;94871.28;10491911;28;20537;-73
2021/06/24 20:31:33;;;;;;;23.33;5.87;;;;;;;27.54;92.11;94857.81;10491894;28;20484;-73
2021/06/24 20:36:33;;;;;;;25.40;6.70;;;;;;;27.45;96.17;94858.91;10491296;28;20302;-73
2021/06/24 20:41:33;;;;;;;26.30;7.30;;;;;;;27.24;94.69;94839.34;10491005;28;20536;-73
2021/06/24 20:46:34;;;;;;;30.53;7.60;;;;;;;27.15;99.22;94841.59;10490902;28;20271;-73
2021/06/24 20:51:34;;;;;;;27.45;7.03;;;;;;;27.05;100.00;94845.84;10491045;28;20032;-73
2021/06/24 20:56:38;;;;;;;26.63;6.83;;;;;;;27.02;100.00;94843.84;10490521;28;20035;-73
2021/06/24 21:01:39;;;;;;;28.38;6.05;;;;;;;26.90;95.55;94851.19;10490563;28;20802;-73
2021/06/24 21:06:41;;;;;;;25.83;6.30;;;;;;;26.76;95.46;94853.75;10490639;28;20031;-73
2021/06/24 21:11:44;;;;;;;23.48;5.85;;;;;;;26.73;92.86;94852.53;10490212;28;20085;-73
2021/06/24 21:16:45;;;;;;;23.55;6.10;;;;;;;26.58;100.00;94842.47;10488635;28;20762;-73
2021/06/24 21:21:45;;;;;;;20.83;5.90;;;;;;;26.42;98.57;94840.69;10489597;28;20107;-73
2021/06/24 21:26:46;;;;;;;24.30;7.07;;;;;;;26.34;100.00;94833.50;10489820;28;20028;-73
2021/06/24 21:31:46;;;;;;;18.75;6.15;;;;;;;26.32;100.00;94837.78;10489372;28;20391;-73
2021/06/24 21:36:46;;;;;;;20.33;6.67;;;;;;;26.16;100.00;94844.25;10489062;28;20064;-73
2021/06/24 21:41:47;;;;;;;20.57;6.47;;;;;;;26.09;100.00;94836.69;10488922;28;20282;-73
2021/06/24 21:46:47;;;;;;;22.67;7.28;;;;;;;26.07;100.00;94829.97;10488962;28;20158;-73
2021/06/24 21:51:48;;;;;;;21.47;6.53;;;;;;;26.04;100.00;94834.25;10489009;28;20029;-73
2021/06/24 21:56:48;;;;;;;18.77;6.63;;;;;;;25.94;100.00;94837.59;10488364;28;20535;-73
2021/06/24 22:01:49;;;;;;;21.80;7.38;;;;;;;25.90;100.00;94836.78;10488055;28;20035;-73
2021/06/24 22:06:49;;;;;;;25.00;6.72;;;;;;;25.72;100.00;94839.22;10488163;28;20021;-73
2021/06/24 22:11:49;;;;;;;29.33;6.15;;;;;;;25.47;100.00;94825.84;10487932;28;20520;-73
2021/06/24 22:16:50;;;;;;;19.70;5.37;;;;;;;25.33;100.00;94815.38;10487575;28;20060;-72
2021/06/24 22:21:51;;;;;;;19.73;5.83;;;;;;;25.17;100.00;94814.66;10486914;28;20024;-72
2021/06/24 22:26:51;;;;;;;20.75;6.30;;;;;;;24.94;100.00;94798.16;10487125;28;20282;-72
2021/06/24 22:31:51;;;;;;;23.03;6.13;;;;;;;24.60;100.00;94806.88;10487107;28;20129;-72
2021/06/24 22:36:52;;;;;;;20.33;5.63;;;;;;;24.36;100.00;94825.25;10486333;28;20368;-72
2021/06/24 22:41:52;;;;;;;35.87;9.87;;;;;;;24.34;100.00;94827.53;10486846;28;20341;-72
2021/06/24 22:46:53;;;;;;;14.60;5.33;;;;;;;24.38;100.00;94814.66;10486846;28;20482;-72
2021/06/24 22:51:53;;;;;;;21.58;6.07;;;;;;;24.40;100.00;94815.09;10486969;28;20040;-73
2021/06/24 22:56:53;;;;;;;32.00;6.40;;;;;;;24.46;100.00;94828.56;10487009;28;20034;-73
2021/06/24 23:01:54;;;;;;;26.58;6.38;;;;;;;24.43;100.00;94840.28;10485278;28;20031;-73
2021/06/24 23:06:54;;;;;;;18.13;5.80;;;;;;;24.48;100.00;94851.78;10484682;28;20024;-73
2021/06/24 23:11:55;;;;;;;31.85;6.72;;;;;;;24.44;100.00;94850.91;10484993;28;20086;-73